sensor_id;sensor_type;location;lat;lon;timestamp;temperature;humidity
22540;DHT22;11436;50.860;4.334;2022-12-07T00:01:13;6.10;99.90
22540;DHT22;11436;50.860;4.334;2022-12-07T00:03:42;6.20;99.90
22540;DHT22;11436;50.860;4.334;2022-12-07T00:06:10;6.20;99.90
22540;DHT22;11436;50.860;4.334;2022-12-07T00:08:36;6.20;99.90
22540;DHT22;11436;50.860;4.334;2022-12-07T00:11:09;6.10;99.90
22540;DHT22;11436;50.860;4.334;2022-12-07T00:13:36;6.00;99.90
22540;DHT22;11436;50.860;4.334;2022-12-07T00:18:32;5.90;99.90
22540;DHT22;11436;50.860;4.334;2022-12-07T00:21:03;5.90;99.90
22540;DHT22;11436;50.860;4.334;2022-12-07T00:23:29;5.90;99.90
22540;DHT22;11436;50.860;4.334;2022-12-07T00:25:55;5.80;99.90
22540;DHT22;11436;50.860;4.334;2022-12-07T00:28:20;5.80;99.90
22540;DHT22;11436;50.860;4.334;2022-12-07T00:30:46;5.90;99.90
22540;DHT22;11436;50.860;4.334;2022-12-07T00:33:12;5.90;99.90
22540;DHT22;11436;50.860;4.334;2022-12-07T00:35:38;5.80;99.90
22540;DHT22;11436;50.860;4.334;2022-12-07T00:38:04;5.80;99.90
22540;DHT22;11436;50.860;4.334;2022-12-07T00:40:29;5.80;99.90
22540;DHT22;11436;50.860;4.334;2022-12-07T00:42:55;5.70;99.90
22540;DHT22;11436;50.860;4.334;2022-12-07T00:45:21;5.80;99.90
22540;DHT22;11436;50.860;4.334;2022-12-07T00:47:46;5.70;99.90
22540;DHT22;11436;50.860;4.334;2022-12-07T00:50:12;5.70;99.90
22540;DHT22;11436;50.860;4.334;2022-12-07T00:52:38;5.60;99.90
22540;DHT22;11436;50.860;4.334;2022-12-07T00:55:04;5.70;99.90
22540;DHT22;11436;50.860;4.334;2022-12-07T00:57:30;5.60;99.90
22540;DHT22;11436;50.860;4.334;2022-12-07T00:59:56;5.60;99.90
22540;DHT22;11436;50.860;4.334;2022-12-07T01:02:23;5.60;99.90
22540;DHT22;11436;50.860;4.334;2022-12-07T01:04:49;5.60;99.90
22540;DHT22;11436;50.860;4.334;2022-12-07T01:07:14;5.50;99.90
22540;DHT22;11436;50.860;4.334;2022-12-07T01:09:40;5.50;99.90
22540;DHT22;11436;50.860;4.334;2022-12-07T01:12:06;5.60;99.90
22540;DHT22;11436;50.860;4.334;2022-12-07T01:14:31;5.60;99.90
22540;DHT22;11436;50.860;4.334;2022-12-07T01:16:57;5.60;99.90
22540;DHT22;11436;50.860;4.334;2022-12-07T01:19:23;5.50;99.90
22540;DHT22;11436;50.860;4.334;2022-12-07T01:21:48;5.50;99.90
22540;DHT22;11436;50.860;4.334;2022-12-07T01:24:14;5.50;99.90
22540;DHT22;11436;50.860;4.334;2022-12-07T01:26:40;5.50;99.90
22540;DHT22;11436;50.860;4.334;2022-12-07T01:29:06;5.50;99.90
22540;DHT22;11436;50.860;4.334;2022-12-07T01:31:32;5.50;99.90
22540;DHT22;11436;50.860;4.334;2022-12-07T01:33:59;5.40;99.90
22540;DHT22;11436;50.860;4.334;2022-12-07T01:36:27;5.50;99.90
22540;DHT22;11436;50.860;4.334;2022-12-07T01:39:02;5.40;99.90
22540;DHT22;11436;50.860;4.334;2022-12-07T01:41:30;5.50;99.90
22540;DHT22;11436;50.860;4.334;2022-12-07T01:44:19;5.50;99.90
22540;DHT22;11436;50.860;4.334;2022-12-07T01:46:51;5.50;99.90
22540;DHT22;11436;50.860;4.334;2022-12-07T01:49:47;5.50;99.90
22540;DHT22;11436;50.860;4.334;2022-12-07T01:52:29;5.50;99.90
22540;DHT22;11436;50.860;4.334;2022-12-07T01:55:08;5.50;99.90
22540;DHT22;11436;50.860;4.334;2022-12-07T01:57:41;5.50;99.90
22540;DHT22;11436;50.860;4.334;2022-12-07T02:00:08;5.50;99.90
22540;DHT22;11436;50.860;4.334;2022-12-07T02:02:37;5.50;99.90
22540;DHT22;11436;50.860;4.334;2022-12-07T02:05:05;5.60;99.90
22540;DHT22;11436;50.860;4.334;2022-12-07T02:07:32;5.50;99.90
22540;DHT22;11436;50.860;4.334;2022-12-07T02:10:21;5.50;99.90
22540;DHT22;11436;50.860;4.334;2022-12-07T02:12:52;5.50;99.90
22540;DHT22;11436;50.860;4.334;2022-12-07T02:15:20;5.60;99.90
22540;DHT22;11436;50.860;4.334;2022-12-07T02:21:27;5.30;99.90
22540;DHT22;11436;50.860;4.334;2022-12-07T02:29:17;5.20;99.90
22540;DHT22;11436;50.860;4.334;2022-12-07T02:32:39;5.10;99.90
22540;DHT22;11436;50.860;4.334;2022-12-07T02:35:28;5.20;99.90
22540;DHT22;11436;50.860;4.334;2022-12-07T02:37:58;5.20;99.90
22540;DHT22;11436;50.860;4.334;2022-12-07T02:43:00;5.10;99.90
22540;DHT22;11436;50.860;4.334;2022-12-07T02:45:29;5.10;99.90
22540;DHT22;11436;50.860;4.334;2022-12-07T02:47:58;5.10;99.90
22540;DHT22;11436;50.860;4.334;2022-12-07T02:50:25;5.10;99.90
22540;DHT22;11436;50.860;4.334;2022-12-07T02:52:51;5.20;99.90
22540;DHT22;11436;50.860;4.334;2022-12-07T02:55:29;5.20;99.90
22540;DHT22;11436;50.860;4.334;2022-12-07T03:03:50;5.10;99.90
22540;DHT22;11436;50.860;4.334;2022-12-07T03:06:30;5.20;99.90
22540;DHT22;11436;50.860;4.334;2022-12-07T03:09:22;5.20;99.90
22540;DHT22;11436;50.860;4.334;2022-12-07T03:12:09;5.20;99.90
22540;DHT22;11436;50.860;4.334;2022-12-07T03:14:47;5.20;99.90
22540;DHT22;11436;50.860;4.334;2022-12-07T03:17:22;5.10;99.90
22540;DHT22;11436;50.860;4.334;2022-12-07T03:19:51;5.10;99.90
22540;DHT22;11436;50.860;4.334;2022-12-07T03:22:19;5.20;99.90
22540;DHT22;11436;50.860;4.334;2022-12-07T03:24:58;5.20;99.90
22540;DHT22;11436;50.860;4.334;2022-12-07T03:27:34;5.20;99.90
22540;DHT22;11436;50.860;4.334;2022-12-07T03:30:07;5.20;99.90
22540;DHT22;11436;50.860;4.334;2022-12-07T03:32:35;5.20;99.90
22540;DHT22;11436;50.860;4.334;2022-12-07T03:38:07;5.20;99.90
22540;DHT22;11436;50.860;4.334;2022-12-07T03:40:48;5.20;99.90
22540;DHT22;11436;50.860;4.334;2022-12-07T03:43:18;5.10;99.90
22540;DHT22;11436;50.860;4.334;2022-12-07T03:46:00;5.10;99.90
22540;DHT22;11436;50.860;4.334;2022-12-07T03:51:43;5.00;99.90
22540;DHT22;11436;50.860;4.334;2022-12-07T03:55:14;5.00;99.90
22540;DHT22;11436;50.860;4.334;2022-12-07T03:57:13;5.00;99.90
22540;DHT22;11436;50.860;4.334;2022-12-07T03:59:40;4.90;99.90
22540;DHT22;11436;50.860;4.334;2022-12-07T04:02:11;4.90;99.90
22540;DHT22;11436;50.860;4.334;2022-12-07T04:04:38;4.90;99.90
22540;DHT22;11436;50.860;4.334;2022-12-07T04:07:05;4.90;99.90
22540;DHT22;11436;50.860;4.334;2022-12-07T04:09:31;4.90;99.90
22540;DHT22;11436;50.860;4.334;2022-12-07T04:11:56;4.90;99.90
22540;DHT22;11436;50.860;4.334;2022-12-07T04:14:22;4.90;99.90
22540;DHT22;11436;50.860;4.334;2022-12-07T04:16:53;4.80;99.90
22540;DHT22;11436;50.860;4.334;2022-12-07T04:19:24;4.80;99.90
22540;DHT22;11436;50.860;4.334;2022-12-07T04:21:50;4.70;99.90
22540;DHT22;11436;50.860;4.334;2022-12-07T04:24:16;4.70;99.90
22540;DHT22;11436;50.860;4.334;2022-12-07T04:26:43;4.70;99.90
22540;DHT22;11436;50.860;4.334;2022-12-07T04:29:09;4.70;99.90
22540;DHT22;11436;50.860;4.334;2022-12-07T04:31:36;4.60;99.90
22540;DHT22;11436;50.860;4.334;2022-12-07T04:34:03;4.50;99.90
22540;DHT22;11436;50.860;4.334;2022-12-07T04:36:29;4.60;99.90
22540;DHT22;11436;50.860;4.334;2022-12-07T04:38:55;4.70;99.90
22540;DHT22;11436;50.860;4.334;2022-12-07T04:41:22;4.80;99.90
22540;DHT22;11436;50.860;4.334;2022-12-07T04:43:55;4.80;99.90
22540;DHT22;11436;50.860;4.334;2022-12-07T04:46:22;4.80;99.90
22540;DHT22;11436;50.860;4.334;2022-12-07T04:48:48;4.80;99.90
22540;DHT22;11436;50.860;4.334;2022-12-07T04:51:19;4.90;99.90
22540;DHT22;11436;50.860;4.334;2022-12-07T04:53:45;4.90;99.90
22540;DHT22;11436;50.860;4.334;2022-12-07T04:56:11;4.90;99.90
22540;DHT22;11436;50.860;4.334;2022-12-07T04:58:37;5.00;99.90
22540;DHT22;11436;50.860;4.334;2022-12-07T05:01:03;4.90;99.90
22540;DHT22;11436;50.860;4.334;2022-12-07T05:03:28;4.90;99.90
22540;DHT22;11436;50.860;4.334;2022-12-07T05:05:54;4.90;99.90
22540;DHT22;11436;50.860;4.334;2022-12-07T05:08:20;4.90;99.90
22540;DHT22;11436;50.860;4.334;2022-12-07T05:10:45;4.90;99.90
22540;DHT22;11436;50.860;4.334;2022-12-07T05:13:14;4.90;99.90
22540;DHT22;11436;50.860;4.334;2022-12-07T05:15:39;4.80;99.90
22540;DHT22;11436;50.860;4.334;2022-12-07T05:18:05;4.90;99.90
22540;DHT22;11436;50.860;4.334;2022-12-07T05:20:31;4.80;99.90
22540;DHT22;11436;50.860;4.334;2022-12-07T05:22:57;4.90;99.90
22540;DHT22;11436;50.860;4.334;2022-12-07T05:25:24;4.80;99.90
22540;DHT22;11436;50.860;4.334;2022-12-07T05:27:49;4.80;99.90
22540;DHT22;11436;50.860;4.334;2022-12-07T05:30:15;4.80;99.90
22540;DHT22;11436;50.860;4.334;2022-12-07T05:32:41;4.80;99.90
22540;DHT22;11436;50.860;4.334;2022-12-07T05:35:07;4.80;99.90
22540;DHT22;11436;50.860;4.334;2022-12-07T05:37:33;4.80;99.90
22540;DHT22;11436;50.860;4.334;2022-12-07T05:39:59;4.80;99.90
22540;DHT22;11436;50.860;4.334;2022-12-07T05:42:24;4.80;99.90
22540;DHT22;11436;50.860;4.334;2022-12-07T05:44:51;4.80;99.90
22540;DHT22;11436;50.860;4.334;2022-12-07T05:47:16;4.80;99.90
22540;DHT22;11436;50.860;4.334;2022-12-07T05:49:42;4.80;99.90
22540;DHT22;11436;50.860;4.334;2022-12-07T05:52:08;4.80;99.90
22540;DHT22;11436;50.860;4.334;2022-12-07T05:54:33;4.80;99.90
22540;DHT22;11436;50.860;4.334;2022-12-07T05:57:00;4.80;99.90
22540;DHT22;11436;50.860;4.334;2022-12-07T05:59:26;4.70;99.90
22540;DHT22;11436;50.860;4.334;2022-12-07T06:02:05;4.70;99.90
22540;DHT22;11436;50.860;4.334;2022-12-07T06:04:34;4.70;99.90
22540;DHT22;11436;50.860;4.334;2022-12-07T06:07:00;4.80;99.90
22540;DHT22;11436;50.860;4.334;2022-12-07T06:09:27;4.90;99.90
22540;DHT22;11436;50.860;4.334;2022-12-07T06:11:53;4.80;99.90
22540;DHT22;11436;50.860;4.334;2022-12-07T06:14:38;4.80;99.90
22540;DHT22;11436;50.860;4.334;2022-12-07T06:17:04;4.70;99.90
22540;DHT22;11436;50.860;4.334;2022-12-07T06:19:30;4.70;99.90
22540;DHT22;11436;50.860;4.334;2022-12-07T06:21:56;4.80;99.90
22540;DHT22;11436;50.860;4.334;2022-12-07T06:24:22;4.80;99.90
22540;DHT22;11436;50.860;4.334;2022-12-07T06:26:48;4.90;99.90
22540;DHT22;11436;50.860;4.334;2022-12-07T06:29:14;4.90;99.90
22540;DHT22;11436;50.860;4.334;2022-12-07T06:31:40;4.90;99.90
22540;DHT22;11436;50.860;4.334;2022-12-07T06:34:10;4.90;99.90
22540;DHT22;11436;50.860;4.334;2022-12-07T06:36:36;4.90;99.90
22540;DHT22;11436;50.860;4.334;2022-12-07T06:39:03;5.00;99.90
22540;DHT22;11436;50.860;4.334;2022-12-07T06:41:29;5.00;99.90
22540;DHT22;11436;50.860;4.334;2022-12-07T06:43:55;5.00;99.90
22540;DHT22;11436;50.860;4.334;2022-12-07T06:46:21;5.00;99.90
22540;DHT22;11436;50.860;4.334;2022-12-07T06:48:47;5.00;99.90
22540;DHT22;11436;50.860;4.334;2022-12-07T06:51:12;5.10;99.90
22540;DHT22;11436;50.860;4.334;2022-12-07T06:53:38;5.10;99.90
22540;DHT22;11436;50.860;4.334;2022-12-07T06:56:05;5.10;99.90
22540;DHT22;11436;50.860;4.334;2022-12-07T06:58:30;5.10;99.90
22540;DHT22;11436;50.860;4.334;2022-12-07T07:00:58;5.10;99.90
22540;DHT22;11436;50.860;4.334;2022-12-07T07:03:24;5.10;99.90
22540;DHT22;11436;50.860;4.334;2022-12-07T07:05:49;5.00;99.90
22540;DHT22;11436;50.860;4.334;2022-12-07T07:08:15;5.00;99.90
22540;DHT22;11436;50.860;4.334;2022-12-07T07:10:41;5.10;99.90
22540;DHT22;11436;50.860;4.334;2022-12-07T07:13:08;5.10;99.90
22540;DHT22;11436;50.860;4.334;2022-12-07T07:15:34;5.10;99.90
22540;DHT22;11436;50.860;4.334;2022-12-07T07:18:00;5.10;99.90
22540;DHT22;11436;50.860;4.334;2022-12-07T07:20:26;5.20;99.90
22540;DHT22;11436;50.860;4.334;2022-12-07T07:22:55;5.10;99.90
22540;DHT22;11436;50.860;4.334;2022-12-07T07:25:22;5.10;99.90
22540;DHT22;11436;50.860;4.334;2022-12-07T07:27:48;5.00;99.90
22540;DHT22;11436;50.860;4.334;2022-12-07T07:30:14;5.00;99.90
22540;DHT22;11436;50.860;4.334;2022-12-07T07:32:39;5.00;99.90
22540;DHT22;11436;50.860;4.334;2022-12-07T07:35:06;5.00;99.90
22540;DHT22;11436;50.860;4.334;2022-12-07T07:37:31;5.00;99.90
22540;DHT22;11436;50.860;4.334;2022-12-07T07:39:57;5.00;99.90
22540;DHT22;11436;50.860;4.334;2022-12-07T07:42:23;5.20;99.90
22540;DHT22;11436;50.860;4.334;2022-12-07T07:44:48;5.10;99.90
22540;DHT22;11436;50.860;4.334;2022-12-07T07:47:15;5.10;99.90
22540;DHT22;11436;50.860;4.334;2022-12-07T07:49:41;5.10;99.90
22540;DHT22;11436;50.860;4.334;2022-12-07T07:52:07;5.00;99.90
22540;DHT22;11436;50.860;4.334;2022-12-07T07:54:32;5.00;99.90
22540;DHT22;11436;50.860;4.334;2022-12-07T07:56:58;4.90;99.90
22540;DHT22;11436;50.860;4.334;2022-12-07T07:59:24;5.00;99.90
22540;DHT22;11436;50.860;4.334;2022-12-07T08:01:50;5.00;99.90
22540;DHT22;11436;50.860;4.334;2022-12-07T08:04:16;5.00;99.90
22540;DHT22;11436;50.860;4.334;2022-12-07T08:06:42;5.00;99.90
22540;DHT22;11436;50.860;4.334;2022-12-07T08:09:08;5.10;99.90
22540;DHT22;11436;50.860;4.334;2022-12-07T08:11:34;5.00;99.90
22540;DHT22;11436;50.860;4.334;2022-12-07T08:14:02;5.00;99.90
22540;DHT22;11436;50.860;4.334;2022-12-07T08:16:28;5.10;99.90
22540;DHT22;11436;50.860;4.334;2022-12-07T08:18:54;5.20;99.90
22540;DHT22;11436;50.860;4.334;2022-12-07T08:21:19;5.10;99.90
22540;DHT22;11436;50.860;4.334;2022-12-07T08:23:45;5.10;99.90
22540;DHT22;11436;50.860;4.334;2022-12-07T08:26:13;5.10;99.90
22540;DHT22;11436;50.860;4.334;2022-12-07T08:28:39;5.10;99.90
22540;DHT22;11436;50.860;4.334;2022-12-07T08:31:13;5.10;99.90
22540;DHT22;11436;50.860;4.334;2022-12-07T08:33:40;5.10;99.90
22540;DHT22;11436;50.860;4.334;2022-12-07T08:36:10;5.10;99.90
22540;DHT22;11436;50.860;4.334;2022-12-07T08:38:38;5.00;99.90
22540;DHT22;11436;50.860;4.334;2022-12-07T08:41:06;5.00;99.90
22540;DHT22;11436;50.860;4.334;2022-12-07T08:43:33;4.90;99.90
22540;DHT22;11436;50.860;4.334;2022-12-07T08:46:21;5.00;99.90
22540;DHT22;11436;50.860;4.334;2022-12-07T08:48:57;5.10;99.90
22540;DHT22;11436;50.860;4.334;2022-12-07T08:51:24;5.20;99.90
22540;DHT22;11436;50.860;4.334;2022-12-07T08:53:51;5.30;99.90
22540;DHT22;11436;50.860;4.334;2022-12-07T08:56:18;5.40;99.90
22540;DHT22;11436;50.860;4.334;2022-12-07T08:58:44;5.50;99.90
22540;DHT22;11436;50.860;4.334;2022-12-07T09:01:10;5.40;99.90
22540;DHT22;11436;50.860;4.334;2022-12-07T09:03:36;5.40;99.90
22540;DHT22;11436;50.860;4.334;2022-12-07T09:06:01;5.50;99.90
22540;DHT22;11436;50.860;4.334;2022-12-07T09:08:34;5.50;99.90
22540;DHT22;11436;50.860;4.334;2022-12-07T09:11:02;5.70;99.90
22540;DHT22;11436;50.860;4.334;2022-12-07T09:13:27;5.70;99.90
22540;DHT22;11436;50.860;4.334;2022-12-07T09:15:53;5.70;99.90
22540;DHT22;11436;50.860;4.334;2022-12-07T09:18:19;5.80;99.90
22540;DHT22;11436;50.860;4.334;2022-12-07T09:20:45;5.80;99.90
22540;DHT22;11436;50.860;4.334;2022-12-07T09:23:10;5.80;99.90
22540;DHT22;11436;50.860;4.334;2022-12-07T09:25:36;5.90;99.90
22540;DHT22;11436;50.860;4.334;2022-12-07T09:28:02;5.90;99.90
22540;DHT22;11436;50.860;4.334;2022-12-07T09:30:28;6.10;99.90
22540;DHT22;11436;50.860;4.334;2022-12-07T09:32:55;5.90;99.90
22540;DHT22;11436;50.860;4.334;2022-12-07T09:35:21;5.70;99.90
22540;DHT22;11436;50.860;4.334;2022-12-07T09:37:47;5.90;99.90
22540;DHT22;11436;50.860;4.334;2022-12-07T09:40:14;6.10;99.90
22540;DHT22;11436;50.860;4.334;2022-12-07T09:42:44;6.10;99.90
22540;DHT22;11436;50.860;4.334;2022-12-07T09:45:19;6.20;99.90
22540;DHT22;11436;50.860;4.334;2022-12-07T09:47:45;6.10;99.90
22540;DHT22;11436;50.860;4.334;2022-12-07T09:50:24;6.20;99.90
22540;DHT22;11436;50.860;4.334;2022-12-07T09:52:50;6.30;99.90
22540;DHT22;11436;50.860;4.334;2022-12-07T09:55:27;6.40;99.90
22540;DHT22;11436;50.860;4.334;2022-12-07T09:57:53;6.40;99.90
22540;DHT22;11436;50.860;4.334;2022-12-07T10:00:21;6.30;99.90
22540;DHT22;11436;50.860;4.334;2022-12-07T10:02:57;6.40;99.90
22540;DHT22;11436;50.860;4.334;2022-12-07T10:07:52;6.30;99.90
22540;DHT22;11436;50.860;4.334;2022-12-07T10:10:26;6.40;99.90
22540;DHT22;11436;50.860;4.334;2022-12-07T10:13:07;6.40;99.90
22540;DHT22;11436;50.860;4.334;2022-12-07T10:15:56;6.30;99.90
22540;DHT22;11436;50.860;4.334;2022-12-07T10:23:42;6.40;99.90
22540;DHT22;11436;50.860;4.334;2022-12-07T10:26:40;6.40;99.90
22540;DHT22;11436;50.860;4.334;2022-12-07T10:32:03;6.70;99.90
22540;DHT22;11436;50.860;4.334;2022-12-07T10:34:30;6.80;99.90
22540;DHT22;11436;50.860;4.334;2022-12-07T10:39:48;6.80;99.90
22540;DHT22;11436;50.860;4.334;2022-12-07T10:44:46;6.70;99.90
22540;DHT22;11436;50.860;4.334;2022-12-07T10:50:53;6.70;99.90
22540;DHT22;11436;50.860;4.334;2022-12-07T10:56:47;6.80;99.90
22540;DHT22;11436;50.860;4.334;2022-12-07T11:25:37;6.70;99.90
22540;DHT22;11436;50.860;4.334;2022-12-07T11:36:47;6.50;99.90
22540;DHT22;11436;50.860;4.334;2022-12-07T11:41:54;6.50;99.90
22540;DHT22;11436;50.860;4.334;2022-12-07T11:58:03;6.70;99.90
22540;DHT22;11436;50.860;4.334;2022-12-07T12:00:29;6.70;99.90
22540;DHT22;11436;50.860;4.334;2022-12-07T12:02:59;6.70;99.90
22540;DHT22;11436;50.860;4.334;2022-12-07T12:05:26;6.70;99.90
22540;DHT22;11436;50.860;4.334;2022-12-07T12:08:13;6.80;99.90
22540;DHT22;11436;50.860;4.334;2022-12-07T12:11:08;6.70;99.90
22540;DHT22;11436;50.860;4.334;2022-12-07T12:16:32;7.00;99.90
22540;DHT22;11436;50.860;4.334;2022-12-07T12:21:49;7.00;99.90
22540;DHT22;11436;50.860;4.334;2022-12-07T12:24:19;7.10;99.90
22540;DHT22;11436;50.860;4.334;2022-12-07T12:26:54;7.00;99.90
22540;DHT22;11436;50.860;4.334;2022-12-07T12:29:41;7.00;99.90
22540;DHT22;11436;50.860;4.334;2022-12-07T12:32:43;6.90;99.90
22540;DHT22;11436;50.860;4.334;2022-12-07T12:37:52;6.90;99.90
22540;DHT22;11436;50.860;4.334;2022-12-07T12:42:55;6.90;99.90
22540;DHT22;11436;50.860;4.334;2022-12-07T12:45:26;7.00;99.90
22540;DHT22;11436;50.860;4.334;2022-12-07T12:50:37;7.00;99.90
22540;DHT22;11436;50.860;4.334;2022-12-07T13:00:47;7.50;99.90
22540;DHT22;11436;50.860;4.334;2022-12-07T13:03:27;7.40;99.90
22540;DHT22;11436;50.860;4.334;2022-12-07T13:08:54;7.50;99.90
22540;DHT22;11436;50.860;4.334;2022-12-07T13:11:44;7.40;99.90
22540;DHT22;11436;50.860;4.334;2022-12-07T13:14:43;7.30;99.90
22540;DHT22;11436;50.860;4.334;2022-12-07T13:17:11;7.40;99.90
22540;DHT22;11436;50.860;4.334;2022-12-07T13:25:26;7.70;99.90
22540;DHT22;11436;50.860;4.334;2022-12-07T13:28:02;7.70;99.90
22540;DHT22;11436;50.860;4.334;2022-12-07T13:30:33;7.60;99.90
22540;DHT22;11436;50.860;4.334;2022-12-07T13:33:09;7.70;99.90
22540;DHT22;11436;50.860;4.334;2022-12-07T13:35:37;7.80;99.90
22540;DHT22;11436;50.860;4.334;2022-12-07T13:41:14;7.50;99.90
22540;DHT22;11436;50.860;4.334;2022-12-07T13:44:33;7.60;99.90
22540;DHT22;11436;50.860;4.334;2022-12-07T13:51:54;7.50;99.90
22540;DHT22;11436;50.860;4.334;2022-12-07T13:54:21;7.50;99.90
22540;DHT22;11436;50.860;4.334;2022-12-07T13:56:50;7.50;99.90
22540;DHT22;11436;50.860;4.334;2022-12-07T13:59:25;7.40;99.90
22540;DHT22;11436;50.860;4.334;2022-12-07T14:01:53;7.50;99.90
22540;DHT22;11436;50.860;4.334;2022-12-07T14:04:33;7.40;99.90
22540;DHT22;11436;50.860;4.334;2022-12-07T14:06:59;7.00;99.90
22540;DHT22;11436;50.860;4.334;2022-12-07T14:09:27;6.80;99.90
22540;DHT22;11436;50.860;4.334;2022-12-07T14:11:55;6.70;99.90
22540;DHT22;11436;50.860;4.334;2022-12-07T14:14:30;6.60;99.90
22540;DHT22;11436;50.860;4.334;2022-12-07T14:17:15;6.60;99.90
22540;DHT22;11436;50.860;4.334;2022-12-07T14:20:01;6.70;99.90
22540;DHT22;11436;50.860;4.334;2022-12-07T15:47:48;6.10;99.90
22540;DHT22;11436;50.860;4.334;2022-12-07T15:50:15;6.10;99.90
22540;DHT22;11436;50.860;4.334;2022-12-07T15:52:42;6.10;99.90
22540;DHT22;11436;50.860;4.334;2022-12-07T15:55:09;6.10;99.90
22540;DHT22;11436;50.860;4.334;2022-12-07T15:57:37;6.10;99.90
22540;DHT22;11436;50.860;4.334;2022-12-07T16:00:04;6.10;99.90
22540;DHT22;11436;50.860;4.334;2022-12-07T16:02:31;6.00;99.90
22540;DHT22;11436;50.860;4.334;2022-12-07T16:04:57;6.00;99.90
22540;DHT22;11436;50.860;4.334;2022-12-07T16:07:22;5.90;99.90
22540;DHT22;11436;50.860;4.334;2022-12-07T16:09:48;6.00;99.90
22540;DHT22;11436;50.860;4.334;2022-12-07T16:12:17;6.00;99.90
22540;DHT22;11436;50.860;4.334;2022-12-07T16:14:43;6.00;99.90
22540;DHT22;11436;50.860;4.334;2022-12-07T16:17:09;6.00;99.90
22540;DHT22;11436;50.860;4.334;2022-12-07T16:19:36;6.00;99.90
22540;DHT22;11436;50.860;4.334;2022-12-07T16:22:03;5.90;99.90
22540;DHT22;11436;50.860;4.334;2022-12-07T16:24:30;5.90;99.90
22540;DHT22;11436;50.860;4.334;2022-12-07T16:26:56;5.90;99.90
22540;DHT22;11436;50.860;4.334;2022-12-07T16:29:22;6.00;99.90
22540;DHT22;11436;50.860;4.334;2022-12-07T16:31:51;6.10;99.90
22540;DHT22;11436;50.860;4.334;2022-12-07T16:34:17;6.20;99.90
22540;DHT22;11436;50.860;4.334;2022-12-07T16:36:43;6.20;99.90
22540;DHT22;11436;50.860;4.334;2022-12-07T16:39:09;6.30;99.90
22540;DHT22;11436;50.860;4.334;2022-12-07T16:41:35;6.30;99.90
22540;DHT22;11436;50.860;4.334;2022-12-07T16:44:07;6.30;99.90
22540;DHT22;11436;50.860;4.334;2022-12-07T16:46:35;6.20;99.90
22540;DHT22;11436;50.860;4.334;2022-12-07T16:49:02;6.20;99.90
22540;DHT22;11436;50.860;4.334;2022-12-07T16:51:28;6.20;99.90
22540;DHT22;11436;50.860;4.334;2022-12-07T16:53:54;6.30;99.90
22540;DHT22;11436;50.860;4.334;2022-12-07T16:56:23;6.30;99.90
22540;DHT22;11436;50.860;4.334;2022-12-07T16:58:49;6.20;99.90
22540;DHT22;11436;50.860;4.334;2022-12-07T17:01:20;6.20;99.90
22540;DHT22;11436;50.860;4.334;2022-12-07T17:03:48;6.20;99.90
22540;DHT22;11436;50.860;4.334;2022-12-07T17:06:19;6.20;99.90
22540;DHT22;11436;50.860;4.334;2022-12-07T17:08:48;6.30;99.90
22540;DHT22;11436;50.860;4.334;2022-12-07T17:11:19;6.30;99.90
22540;DHT22;11436;50.860;4.334;2022-12-07T17:13:46;6.40;99.90
22540;DHT22;11436;50.860;4.334;2022-12-07T17:16:31;6.40;99.90
22540;DHT22;11436;50.860;4.334;2022-12-07T17:18:57;6.30;99.90
22540;DHT22;11436;50.860;4.334;2022-12-07T17:21:23;6.20;99.90
22540;DHT22;11436;50.860;4.334;2022-12-07T17:23:49;6.20;99.90
22540;DHT22;11436;50.860;4.334;2022-12-07T17:26:22;6.20;99.90
22540;DHT22;11436;50.860;4.334;2022-12-07T17:28:47;6.10;99.90
22540;DHT22;11436;50.860;4.334;2022-12-07T17:31:16;6.10;99.90
22540;DHT22;11436;50.860;4.334;2022-12-07T17:33:42;6.10;99.90
22540;DHT22;11436;50.860;4.334;2022-12-07T17:38:43;6.10;99.90
22540;DHT22;11436;50.860;4.334;2022-12-07T17:41:14;6.00;99.90
22540;DHT22;11436;50.860;4.334;2022-12-07T17:44:00;6.00;99.90
22540;DHT22;11436;50.860;4.334;2022-12-07T17:46:27;5.90;99.90
22540;DHT22;11436;50.860;4.334;2022-12-07T17:48:56;6.00;99.90
22540;DHT22;11436;50.860;4.334;2022-12-07T17:51:22;6.10;99.90
22540;DHT22;11436;50.860;4.334;2022-12-07T17:54:07;6.00;99.90
22540;DHT22;11436;50.860;4.334;2022-12-07T17:56:34;6.00;99.90
22540;DHT22;11436;50.860;4.334;2022-12-07T17:59:00;6.00;99.90
22540;DHT22;11436;50.860;4.334;2022-12-07T18:01:26;6.00;99.90
22540;DHT22;11436;50.860;4.334;2022-12-07T18:03:51;6.00;99.90
22540;DHT22;11436;50.860;4.334;2022-12-07T18:06:17;6.00;99.90
22540;DHT22;11436;50.860;4.334;2022-12-07T18:08:44;6.10;99.90
22540;DHT22;11436;50.860;4.334;2022-12-07T18:11:10;6.00;99.90
22540;DHT22;11436;50.860;4.334;2022-12-07T18:13:36;6.00;99.90
22540;DHT22;11436;50.860;4.334;2022-12-07T18:16:08;6.00;99.90
22540;DHT22;11436;50.860;4.334;2022-12-07T18:18:36;5.90;99.90
22540;DHT22;11436;50.860;4.334;2022-12-07T18:21:03;5.90;99.90
22540;DHT22;11436;50.860;4.334;2022-12-07T18:23:30;5.90;99.90
22540;DHT22;11436;50.860;4.334;2022-12-07T18:25:58;5.80;99.90
22540;DHT22;11436;50.860;4.334;2022-12-07T18:28:24;5.70;99.90
22540;DHT22;11436;50.860;4.334;2022-12-07T18:30:50;5.70;99.90
22540;DHT22;11436;50.860;4.334;2022-12-07T18:33:17;5.50;99.90
22540;DHT22;11436;50.860;4.334;2022-12-07T18:35:45;5.50;99.90
22540;DHT22;11436;50.860;4.334;2022-12-07T18:38:14;5.50;99.90
22540;DHT22;11436;50.860;4.334;2022-12-07T18:40:41;5.40;99.90
22540;DHT22;11436;50.860;4.334;2022-12-07T18:43:08;5.40;99.90
22540;DHT22;11436;50.860;4.334;2022-12-07T18:45:38;5.50;99.90
22540;DHT22;11436;50.860;4.334;2022-12-07T18:48:04;5.40;99.90
22540;DHT22;11436;50.860;4.334;2022-12-07T18:50:30;5.40;99.90
22540;DHT22;11436;50.860;4.334;2022-12-07T18:52:58;5.50;99.90
22540;DHT22;11436;50.860;4.334;2022-12-07T18:55:25;5.50;99.90
22540;DHT22;11436;50.860;4.334;2022-12-07T18:57:52;5.40;99.90
22540;DHT22;11436;50.860;4.334;2022-12-07T19:00:18;5.30;99.90
22540;DHT22;11436;50.860;4.334;2022-12-07T19:02:44;5.40;99.90
22540;DHT22;11436;50.860;4.334;2022-12-07T19:05:10;5.40;99.90
22540;DHT22;11436;50.860;4.334;2022-12-07T19:07:36;5.40;99.90
22540;DHT22;11436;50.860;4.334;2022-12-07T19:10:03;5.40;99.90
22540;DHT22;11436;50.860;4.334;2022-12-07T19:12:29;5.40;99.90
22540;DHT22;11436;50.860;4.334;2022-12-07T19:14:55;5.30;99.90
22540;DHT22;11436;50.860;4.334;2022-12-07T19:17:21;5.30;99.90
22540;DHT22;11436;50.860;4.334;2022-12-07T19:19:46;5.40;99.90
22540;DHT22;11436;50.860;4.334;2022-12-07T19:22:15;5.60;99.90
22540;DHT22;11436;50.860;4.334;2022-12-07T19:24:43;5.70;99.90
22540;DHT22;11436;50.860;4.334;2022-12-07T19:27:11;5.60;99.90
22540;DHT22;11436;50.860;4.334;2022-12-07T19:29:37;5.40;99.90
22540;DHT22;11436;50.860;4.334;2022-12-07T19:32:04;5.30;99.90
22540;DHT22;11436;50.860;4.334;2022-12-07T19:34:30;5.30;99.90
22540;DHT22;11436;50.860;4.334;2022-12-07T19:36:56;5.30;99.90
22540;DHT22;11436;50.860;4.334;2022-12-07T19:39:22;5.30;99.90
22540;DHT22;11436;50.860;4.334;2022-12-07T19:41:47;5.20;99.90
22540;DHT22;11436;50.860;4.334;2022-12-07T19:44:19;5.10;99.90